createdAt,value
2018-11-04T00:00:42.183Z,52.6
2018-11-04T00:01:44.302Z,52.7
2018-11-04T00:02:45.730Z,52.5
2018-11-04T00:03:47.349Z,52.9
2018-11-04T00:04:48.968Z,52.9
2018-11-04T00:05:50.291Z,52.8
2018-11-04T00:06:51.908Z,52.5
2018-11-04T00:07:53.590Z,53.2
2018-11-04T00:08:55.275Z,52.8
2018-11-04T00:09:57.171Z,52.8
2018-11-04T00:10:58.490Z,52.7
2018-11-04T00:12:00.385Z,52.8
2018-11-04T00:13:01.917Z,52.9
2018-11-04T00:14:03.943Z,52.6
2018-11-04T00:15:05.552Z,52.8
2018-11-04T00:16:07.170Z,52.9
2018-11-04T00:17:09.066Z,52.7
2018-11-04T00:18:10.686Z,52.6
2018-11-04T00:19:12.007Z,52.6
2018-11-04T00:20:13.923Z,52.6
2018-11-04T00:21:14.669Z,52.5
2018-11-04T00:22:16.269Z,52.7
2018-11-04T00:23:17.900Z,52.7
2018-11-04T00:24:19.795Z,52.6
2018-11-04T00:25:21.136Z,52.7
2018-11-04T00:26:23.033Z,52.5
2018-11-04T00:27:24.848Z,52.7
2018-11-04T00:28:26.244Z,52.6
2018-11-04T00:29:27.561Z,52.5
2018-11-04T00:30:29.181Z,52.5
2018-11-04T00:31:30.778Z,52.6
2018-11-04T00:32:32.435Z,52.6
2018-11-04T00:33:34.052Z,52.5
2018-11-04T00:34:35.451Z,52.7
2018-11-04T00:35:36.831Z,52.8
2018-11-04T00:36:38.449Z,52.9
2018-11-04T00:37:40.345Z,52.9
2018-11-04T00:38:41.965Z,52.9
2018-11-04T00:39:43.861Z,53
2018-11-04T00:40:45.456Z,52.8
2018-11-04T00:41:46.505Z,53.1
2018-11-04T00:42:47.847Z,53
2018-11-04T00:43:49.471Z,52.8
2018-11-04T00:44:51.089Z,53
2018-11-04T00:45:52.690Z,53
2018-11-04T00:46:54.281Z,53
2018-11-04T00:47:55.624Z,52.9
2018-11-04T00:48:57.519Z,53
2018-11-04T00:49:59.115Z,52.8
2018-11-04T00:51:00.733Z,52.9
2018-11-04T00:52:02.392Z,52.9
2018-11-04T00:53:04.011Z,53
2018-11-04T00:54:05.629Z,52.9
2018-11-04T00:55:07.247Z,52.9
2018-11-04T00:56:08.866Z,52.9
2018-11-04T00:57:10.504Z,53
2018-11-04T00:58:12.398Z,52.8
2018-11-04T00:59:13.997Z,52.8
2018-11-04T01:00:15.334Z,52.8
2018-11-04T01:01:16.676Z,52.9
2018-11-04T01:02:18.574Z,52.8
2018-11-04T01:03:20.196Z,52.8
2018-11-04T01:04:22.097Z,52.8
2018-11-04T01:05:23.989Z,52.8
2018-11-04T01:06:25.607Z,53.4
2018-11-04T01:07:27.017Z,52.8
2018-11-04T01:08:28.629Z,52.8
2018-11-04T01:09:30.225Z,52.9
2018-11-04T01:10:31.547Z,52.8
2018-11-04T01:11:33.441Z,52.9
2018-11-04T01:12:34.767Z,52.9
2018-11-04T01:13:36.099Z,52.8
2018-11-04T01:14:37.694Z,52.8
2018-11-04T01:15:39.592Z,52.7
2018-11-04T01:16:41.210Z,52.7
2018-11-04T01:17:42.824Z,52.7
2018-11-04T01:18:44.421Z,52.6
2018-11-04T01:19:46.319Z,53
2018-11-04T01:20:47.935Z,53.1
2018-11-04T01:21:49.874Z,52.6
2018-11-04T01:22:51.210Z,53.4
2018-11-04T01:23:52.818Z,53.2
2018-11-04T01:24:54.138Z,52.6
2018-11-04T01:25:56.037Z,52.9
2018-11-04T01:26:57.925Z,52.7
2018-11-04T01:27:59.545Z,52.7
2018-11-04T01:29:01.161Z,53
2018-11-04T01:30:02.852Z,52.6
2018-11-04T01:31:04.881Z,53
2018-11-04T01:32:06.508Z,53
2018-11-04T01:33:08.104Z,52.6
2018-11-04T01:34:10.004Z,53.4
2018-11-04T01:35:11.618Z,53.3
2018-11-04T01:36:13.238Z,53.2
2018-11-04T01:37:15.135Z,53
2018-11-04T01:38:16.477Z,53.3
2018-11-04T01:39:17.802Z,53.1
2018-11-04T01:40:19.419Z,53
2018-11-04T01:41:21.314Z,53.5
2018-11-04T01:42:22.933Z,53.3
2018-11-04T01:43:24.836Z,53.3
2018-11-04T01:44:26.451Z,52.9
2018-11-04T01:45:28.361Z,53
2018-11-04T01:46:29.980Z,52.9
2018-11-04T01:47:31.864Z,53.3
2018-11-04T01:48:33.205Z,53.2
2018-11-04T01:49:34.823Z,53.2
2018-11-04T01:50:36.441Z,52.7
2018-11-04T01:51:38.059Z,53.1
2018-11-04T01:52:39.656Z,52.7
2018-11-04T01:53:41.553Z,52.6
2018-11-04T01:54:43.452Z,52.8
2018-11-04T01:55:44.495Z,52.7
2018-11-04T01:56:46.394Z,52.6
2018-11-04T01:57:47.993Z,52.6
2018-11-04T01:58:49.888Z,52.9
2018-11-04T01:59:51.506Z,52.7
2018-11-04T02:00:52.849Z,52.7
2018-11-04T02:01:53.892Z,52.7
2018-11-04T02:02:55.216Z,52.7
2018-11-04T02:03:56.538Z,52.7
2018-11-04T02:04:58.434Z,52.7
2018-11-04T02:06:00.343Z,52.7
2018-11-04T02:07:02.240Z,52.7
2018-11-04T02:08:03.855Z,52.9
2018-11-04T02:09:05.751Z,52.6
2018-11-04T02:10:07.370Z,52.7
2018-11-04T02:11:09.270Z,52.8
2018-11-04T02:12:10.886Z,52.7
2018-11-04T02:13:11.655Z,52.6
2018-11-04T02:14:13.250Z,53
2018-11-04T02:15:14.594Z,52.7
2018-11-04T02:16:16.486Z,52.7
2018-11-04T02:17:18.109Z,53.1
2018-11-04T02:18:20.000Z,52.9
2018-11-04T02:19:21.046Z,53.6
2018-11-04T02:20:22.368Z,53.3
2018-11-04T02:21:23.990Z,53.2
2018-11-04T02:22:25.332Z,53.2
2018-11-04T02:23:27.230Z,53.1
2018-11-04T02:24:29.127Z,53.1
2018-11-04T02:25:30.453Z,53
2018-11-04T02:26:32.342Z,53.2
2018-11-04T02:27:33.700Z,53.2
2018-11-04T02:28:35.041Z,53.2
2018-11-04T02:29:36.661Z,53.1
2018-11-04T02:30:38.554Z,53.1
2018-11-04T02:31:40.149Z,53.2
2018-11-04T02:32:42.050Z,53
2018-11-04T02:33:43.936Z,52.7
2018-11-04T02:34:45.277Z,53.1
2018-11-04T02:35:47.173Z,53.2
2018-11-04T02:36:48.795Z,53.2
2018-11-04T02:37:50.157Z,53.4
2018-11-04T02:38:51.476Z,53.2
2018-11-04T02:39:53.094Z,53.3
2018-11-04T02:40:54.733Z,53.3
2018-11-04T02:41:56.353Z,53.4
2018-11-04T02:42:57.976Z,53.2
2018-11-04T02:43:59.865Z,53.2
2018-11-04T02:45:01.210Z,53.2
2018-11-04T02:46:02.530Z,52.9
2018-11-04T02:47:04.385Z,52.9
2018-11-04T02:48:06.444Z,53.4
2018-11-04T02:49:08.040Z,53.3
2018-11-04T02:50:09.647Z,53.2
2018-11-04T02:51:11.534Z,53.2
2018-11-04T02:52:13.430Z,53.2
2018-11-04T02:53:15.328Z,53.2
2018-11-04T02:54:16.394Z,53.2
2018-11-04T02:55:17.742Z,53.3
2018-11-04T02:56:19.352Z,53.3
2018-11-04T02:57:21.248Z,53.3
2018-11-04T02:58:23.144Z,53.3
2018-11-04T02:59:25.041Z,53.2
2018-11-04T03:00:26.379Z,52.7
2018-11-04T03:01:28.005Z,53
2018-11-04T03:02:29.068Z,53.1
2018-11-04T03:03:30.663Z,53.1
2018-11-04T03:04:32.008Z,53.5
2018-11-04T03:05:33.605Z,53.2
2018-11-04T03:06:35.501Z,53.3
2018-11-04T03:07:37.402Z,53.7
2018-11-04T03:08:39.299Z,53.3
2018-11-04T03:09:40.919Z,53.3
2018-11-04T03:10:42.810Z,53.4
2018-11-04T03:11:44.451Z,53.1
2018-11-04T03:12:45.769Z,53.3
2018-11-04T03:13:47.667Z,53.1
2018-11-04T03:14:49.281Z,53.2
2018-11-04T03:15:50.898Z,53.1
2018-11-04T03:16:52.519Z,53.3
2018-11-04T03:17:53.853Z,53.2
2018-11-04T03:18:55.451Z,53.7
2018-11-04T03:19:57.081Z,53.1
2018-11-04T03:20:58.680Z,53.3
2018-11-04T03:22:00.574Z,53.4
2018-11-04T03:23:02.177Z,53.3
2018-11-04T03:24:03.803Z,53.3
2018-11-04T03:25:05.434Z,53.3
2018-11-04T03:26:06.762Z,53.3
2018-11-04T03:27:08.382Z,53.3
2018-11-04T03:28:10.000Z,53.3
2018-11-04T03:29:11.909Z,53.2
2018-11-04T03:30:13.527Z,53.2
2018-11-04T03:31:15.422Z,53.3
2018-11-04T03:32:17.026Z,53
2018-11-04T03:33:18.368Z,53.4
2018-11-04T03:34:19.696Z,53.2
2018-11-04T03:35:21.038Z,53.3
2018-11-04T03:36:22.083Z,53.4
2018-11-04T03:37:23.679Z,53.3
2018-11-04T03:38:25.577Z,53.3
2018-11-04T03:39:26.342Z,53
2018-11-04T03:40:28.241Z,53.3
2018-11-04T03:41:30.135Z,53.3
2018-11-04T03:42:32.036Z,53.2
2018-11-04T03:43:33.385Z,53.4
2018-11-04T03:44:35.275Z,53.4
2018-11-04T03:45:36.898Z,53.3
2018-11-04T03:46:38.222Z,53.3
2018-11-04T03:47:39.569Z,53.3
2018-11-04T03:48:41.193Z,53.5
2018-11-04T03:49:42.510Z,53.5
2018-11-04T03:50:44.133Z,53.5
2018-11-04T03:51:45.750Z,53.5
2018-11-04T03:52:47.645Z,53.5
2018-11-04T03:53:48.971Z,53.7
2018-11-04T03:54:50.565Z,53.4
2018-11-04T03:55:52.478Z,53.3
2018-11-04T03:56:53.820Z,53.3
2018-11-04T03:57:55.717Z,53.5
2018-11-04T03:58:57.340Z,53.5
2018-11-04T03:59:58.688Z,53.5
2018-11-04T04:01:00.579Z,53.5
2018-11-04T04:02:02.482Z,53.3
2018-11-04T04:03:04.373Z,53.4
2018-11-04T04:04:05.994Z,53.5
2018-11-04T04:05:07.888Z,53.6
2018-11-04T04:06:09.787Z,53.5
2018-11-04T04:07:11.713Z,53.4
2018-11-04T04:08:13.327Z,53.4
2018-11-04T04:09:14.670Z,53.4
2018-11-04T04:10:16.010Z,53.3
2018-11-04T04:11:17.633Z,53.4
2018-11-04T04:12:18.952Z,53.5
2018-11-04T04:13:20.272Z,53.4
2018-11-04T04:14:21.618Z,53.4
2018-11-04T04:15:22.939Z,53.4
2018-11-04T04:16:24.835Z,53.5
2018-11-04T04:17:26.457Z,53.4
2018-11-04T04:18:28.356Z,53.4
2018-11-04T04:19:29.679Z,53.5
2018-11-04T04:20:31.020Z,53.6
2018-11-04T04:21:32.637Z,53.5
2018-11-04T04:22:34.542Z,53.4
2018-11-04T04:23:36.163Z,53.5
2018-11-04T04:24:38.058Z,53.5
2018-11-04T04:25:39.402Z,53.5
2018-11-04T04:26:41.293Z,53.4
2018-11-04T04:27:43.190Z,53.5
2018-11-04T04:28:44.518Z,53.6
2018-11-04T04:29:46.134Z,53.5
2018-11-04T04:30:47.752Z,53.6
2018-11-04T04:31:49.370Z,53.7
2018-11-04T04:32:51.271Z,53.5
2018-11-04T04:33:52.616Z,53.7
2018-11-04T04:34:54.510Z,53.7
2018-11-04T04:35:56.406Z,53.8
2018-11-04T04:36:57.752Z,53.8
2018-11-04T04:37:59.646Z,53.6
2018-11-04T04:39:00.966Z,53.6
2018-11-04T04:40:02.583Z,53.6
2018-11-04T04:41:03.904Z,53.7
2018-11-04T04:42:05.521Z,53.6
2018-11-04T04:43:07.120Z,53.7
2018-11-04T04:44:08.464Z,53.7
2018-11-04T04:45:10.096Z,53.6
2018-11-04T04:46:11.132Z,53.5
2018-11-04T04:47:12.726Z,53.7
2018-11-04T04:48:14.066Z,53.7
2018-11-04T04:49:15.691Z,53.7
2018-11-04T04:50:17.026Z,53.5
2018-11-04T04:51:18.920Z,53.6
2018-11-04T04:52:20.516Z,53.6
2018-11-04T04:53:22.417Z,53.8
2018-11-04T04:54:24.012Z,53.8
2018-11-04T04:55:25.633Z,54.1
2018-11-04T04:56:27.544Z,53.7
2018-11-04T04:57:29.176Z,53.7
2018-11-04T04:58:30.794Z,53.7
2018-11-04T04:59:32.413Z,53.9
2018-11-04T05:00:34.060Z,53.9
2018-11-04T05:01:35.945Z,53.7
2018-11-04T05:02:37.841Z,53.8
2018-11-04T05:03:39.464Z,53.7
2018-11-04T05:04:41.061Z,53.8
2018-11-04T05:05:42.961Z,53.7
2018-11-04T05:06:44.580Z,53.7
2018-11-04T05:07:46.214Z,53.8
2018-11-04T05:08:47.549Z,53.7
2018-11-04T05:09:49.443Z,53.6
2018-11-04T05:10:51.060Z,53.6
2018-11-04T05:11:52.684Z,53.7
2018-11-04T05:12:54.051Z,53.7
2018-11-04T05:13:55.940Z,53.7
2018-11-04T05:14:57.836Z,53.7
2018-11-04T05:15:59.181Z,53.6
2018-11-04T05:17:01.118Z,53.6
2018-11-04T05:18:02.740Z,53.7
2018-11-04T05:19:04.081Z,53.8
2018-11-04T05:20:05.404Z,53.7
2018-11-04T05:21:06.746Z,53.8
2018-11-04T05:22:08.644Z,54.2
2018-11-04T05:23:10.260Z,53.7
2018-11-04T05:24:11.878Z,53.8
2018-11-04T05:25:13.476Z,53.7
2018-11-04T05:26:15.376Z,53.6
2018-11-04T05:27:16.714Z,54
2018-11-04T05:28:18.612Z,53.6
2018-11-04T05:29:20.263Z,53.6
2018-11-04T05:30:22.159Z,53.6
2018-11-04T05:31:24.055Z,53.7
2018-11-04T05:32:25.676Z,53.9
2018-11-04T05:33:27.590Z,53.7
2018-11-04T05:34:29.180Z,53.9
2018-11-04T05:35:31.076Z,53.9
2018-11-04T05:36:32.693Z,53.9
2018-11-04T05:37:34.589Z,53.9
2018-11-04T05:38:36.214Z,53.9
2018-11-04T05:39:37.811Z,53.8
2018-11-04T05:40:39.708Z,53.8
2018-11-04T05:41:41.308Z,53.9
2018-11-04T05:42:42.929Z,54
2018-11-04T05:43:44.549Z,53.8
2018-11-04T05:44:46.169Z,53.9
2018-11-04T05:45:48.063Z,53.8
2018-11-04T05:46:49.682Z,53.8
2018-11-04T05:47:51.307Z,53.9
2018-11-04T05:48:53.200Z,53.8
2018-11-04T05:49:54.817Z,54
2018-11-04T05:50:56.439Z,53.8
2018-11-04T05:51:57.514Z,54
2018-11-04T05:52:58.836Z,53.9
2018-11-04T05:54:00.732Z,54
2018-11-04T05:55:02.354Z,53.8
2018-11-04T05:56:03.674Z,53.9
2018-11-04T05:57:04.719Z,54
2018-11-04T05:58:06.341Z,53.8
2018-11-04T05:59:07.959Z,54
2018-11-04T06:00:09.285Z,54
2018-11-04T06:01:11.176Z,54
2018-11-04T06:02:13.073Z,53.9
2018-11-04T06:03:14.701Z,54
2018-11-04T06:04:16.019Z,54
2018-11-04T06:05:17.925Z,53.9
2018-11-04T06:06:19.813Z,53.9
2018-11-04T06:07:21.410Z,54
2018-11-04T06:08:23.011Z,54
2018-11-04T06:09:24.358Z,53.9
2018-11-04T06:10:26.254Z,53.9
2018-11-04T06:11:28.153Z,53.9
2018-11-04T06:12:29.748Z,54
2018-11-04T06:13:31.065Z,53.9
2018-11-04T06:14:32.131Z,53.9
2018-11-04T06:15:33.754Z,53.9
2018-11-04T06:16:35.370Z,53.9
2018-11-04T06:17:36.416Z,53.8
2018-11-04T06:18:38.036Z,53.9
2018-11-04T06:19:40.254Z,53.8
2018-11-04T06:20:42.219Z,54
2018-11-04T06:21:43.839Z,53.9
2018-11-04T06:22:45.463Z,53.9
2018-11-04T06:23:47.352Z,53.9
2018-11-04T06:24:49.247Z,54.1
2018-11-04T06:25:50.866Z,54.1
2018-11-04T06:26:52.759Z,54.2
2018-11-04T06:27:54.082Z,54.2
2018-11-04T06:28:55.699Z,54
2018-11-04T06:29:57.319Z,54.1
2018-11-04T06:30:58.642Z,54
2018-11-04T06:31:59.968Z,53.9
2018-11-04T06:33:01.304Z,54.1
2018-11-04T06:34:02.353Z,54.1
2018-11-04T06:35:03.670Z,54.1
2018-11-04T06:36:05.292Z,54.1
2018-11-04T06:37:06.334Z,54.2
2018-11-04T06:38:08.235Z,54.1
2018-11-04T06:39:10.142Z,54.3
2018-11-04T06:40:11.195Z,54.2
2018-11-04T06:41:12.997Z,54.1
2018-11-04T06:42:15.303Z,54.2
2018-11-04T06:43:16.941Z,54.4
2018-11-04T06:44:18.251Z,54.4
2018-11-04T06:45:20.147Z,54.3
2018-11-04T06:46:21.765Z,54.4
2018-11-04T06:47:23.407Z,54.4
2018-11-04T06:48:25.420Z,54.5
2018-11-04T06:49:26.742Z,54.4
2018-11-04T06:50:28.637Z,54.3
2018-11-04T06:51:30.534Z,54.4
2018-11-04T06:52:31.878Z,54.3
2018-11-04T06:53:33.479Z,54.3
2018-11-04T06:54:35.104Z,54.4
2018-11-04T06:55:36.999Z,54.3
2018-11-04T06:56:38.326Z,54.3
2018-11-04T06:57:39.919Z,54.5
2018-11-04T06:58:41.267Z,54.4
2018-11-04T06:59:42.890Z,54.7
2018-11-04T07:00:44.266Z,54.4
2018-11-04T07:01:45.863Z,54.5
2018-11-04T07:02:47.190Z,54.4
2018-11-04T07:03:48.788Z,54.4
2018-11-04T07:04:50.683Z,54.4
2018-11-04T07:05:52.303Z,54.6
2018-11-04T07:06:53.632Z,54.7
2018-11-04T07:07:55.299Z,54.6
2018-11-04T07:08:56.921Z,54.5
2018-11-04T07:09:58.638Z,54.6
2018-11-04T07:11:00.238Z,54.7
2018-11-04T07:12:01.857Z,54.6
2018-11-04T07:13:03.474Z,54.6
2018-11-04T07:14:05.095Z,54.9
2018-11-04T07:15:06.996Z,54.7
2018-11-04T07:16:08.315Z,54.6
2018-11-04T07:17:09.640Z,54.7
2018-11-04T07:18:10.694Z,54.7
2018-11-04T07:19:12.312Z,54.9
2018-11-04T07:20:13.933Z,54.7
2018-11-04T07:21:15.275Z,54.5
2018-11-04T07:22:17.173Z,54.5
2018-11-04T07:23:18.221Z,54.5
2018-11-04T07:24:19.560Z,54.4
2018-11-04T07:25:21.458Z,54.9
2018-11-04T07:26:23.491Z,54.9
2018-11-04T07:27:25.391Z,54.9
2018-11-04T07:28:27.288Z,54.6
2018-11-04T07:29:28.906Z,54.6
2018-11-04T07:30:30.503Z,54.4
2018-11-04T07:31:32.101Z,54.7
2018-11-04T07:32:33.425Z,54.5
2018-11-04T07:33:35.321Z,54.8
2018-11-04T07:34:36.936Z,54.6
2018-11-04T07:35:38.540Z,54.5
2018-11-04T07:36:40.160Z,54.8
2018-11-04T07:37:41.777Z,54.6
2018-11-04T07:38:43.676Z,54.7
2018-11-04T07:39:45.575Z,54.6
2018-11-04T07:40:47.483Z,54.6
2018-11-04T07:41:49.088Z,54.6
2018-11-04T07:42:50.985Z,54.8
2018-11-04T07:43:52.886Z,54.8
2018-11-04T07:44:54.781Z,54.9
2018-11-04T07:45:56.129Z,54.7
2018-11-04T07:46:58.021Z,54.7
2018-11-04T07:47:59.916Z,54.9
2018-11-04T07:49:01.817Z,54.8
2018-11-04T07:50:03.709Z,55
2018-11-04T07:51:05.325Z,54.8
2018-11-04T07:52:06.926Z,54.8
2018-11-04T07:53:08.546Z,54.8
2018-11-04T07:54:10.443Z,54.7
2018-11-04T07:55:12.360Z,54.7
2018-11-04T07:56:13.979Z,54.9
2018-11-04T07:57:15.600Z,54.8
2018-11-04T07:58:17.216Z,54.8
2018-11-04T07:59:18.834Z,54.8
2018-11-04T08:00:20.443Z,54.8
2018-11-04T08:01:21.786Z,55
2018-11-04T08:02:23.127Z,54.8
2018-11-04T08:03:24.812Z,54.9
2018-11-04T08:04:26.749Z,54.9
2018-11-04T08:05:28.652Z,54.8
2018-11-04T08:06:30.550Z,54.7
2018-11-04T08:07:31.594Z,54.4
2018-11-04T08:08:32.916Z,54.4
2018-11-04T08:09:34.515Z,54.6
2018-11-04T08:10:36.134Z,54.6
2018-11-04T08:11:37.733Z,54.4
2018-11-04T08:12:39.627Z,54.6
2018-11-04T08:13:41.235Z,54.5
2018-11-04T08:14:43.162Z,55.1
2018-11-04T08:15:44.507Z,54.6
2018-11-04T08:16:45.853Z,54.6
2018-11-04T08:17:47.749Z,54.6
2018-11-04T08:18:49.349Z,54.5
2018-11-04T08:19:50.945Z,54.7
2018-11-04T08:20:51.991Z,54.5
2018-11-04T08:21:53.032Z,54.7
2018-11-04T08:22:54.928Z,54.5
2018-11-04T08:23:56.826Z,54.5
2018-11-04T08:24:58.446Z,54.4
2018-11-04T08:26:00.052Z,54.7
2018-11-04T08:27:01.375Z,54.4
2018-11-04T08:28:02.426Z,54.6
2018-11-04T08:29:04.322Z,54.6
2018-11-04T08:30:05.662Z,54.4
2018-11-04T08:31:07.004Z,54.8
2018-11-04T08:32:08.350Z,54.5
2018-11-04T08:33:09.946Z,54.5
2018-11-04T08:34:11.564Z,54.6
2018-11-04T08:35:13.185Z,54.5
2018-11-04T08:36:14.506Z,54.5
2018-11-04T08:37:16.406Z,54.6
2018-11-04T08:38:18.025Z,54.4
2018-11-04T08:39:19.922Z,54.6
2018-11-04T08:40:21.453Z,54.5
2018-11-04T08:41:23.642Z,54.5
2018-11-04T08:42:24.962Z,55
2018-11-04T08:43:26.580Z,55
2018-11-04T08:44:27.631Z,54.7
2018-11-04T08:45:29.572Z,54.6
2018-11-04T08:46:31.205Z,54.5
2018-11-04T08:47:32.820Z,54.9
2018-11-04T08:48:33.872Z,55
2018-11-04T08:49:35.492Z,54.7
2018-11-04T08:50:37.403Z,54.6
2018-11-04T08:51:38.998Z,54.7
2018-11-04T08:52:40.888Z,54.6
2018-11-04T08:53:43.217Z,54.5
2018-11-04T08:54:44.540Z,54.9
2018-11-04T08:55:46.438Z,54.8
2018-11-04T08:56:47.775Z,54.7
2018-11-04T08:57:49.413Z,54.7
2018-11-04T08:58:50.734Z,54.8
2018-11-04T08:59:52.125Z,54.8
2018-11-04T09:00:53.783Z,54.7
2018-11-04T09:01:55.690Z,54.7
2018-11-04T09:02:57.302Z,54.6
2018-11-04T09:03:58.934Z,54.6
2018-11-04T09:05:00.552Z,54.7
2018-11-04T09:06:01.324Z,54.7
2018-11-04T09:07:02.948Z,54.8
2018-11-04T09:08:04.841Z,54.7
2018-11-04T09:09:06.459Z,54.9
2018-11-04T09:10:08.354Z,54.7
2018-11-04T09:11:09.974Z,55
2018-11-04T09:12:11.596Z,54.9
2018-11-04T09:13:13.251Z,54.9
2018-11-04T09:14:15.355Z,55
2018-11-04T09:15:17.162Z,54.7
2018-11-04T09:16:19.057Z,54.9
2018-11-04T09:17:20.954Z,54.6
2018-11-04T09:18:22.293Z,54.9
2018-11-04T09:19:23.619Z,54.9
2018-11-04T09:20:25.241Z,54.7
2018-11-04T09:21:27.137Z,54.6
2018-11-04T09:22:29.217Z,55
2018-11-04T09:23:30.770Z,54.6
2018-11-04T09:24:32.466Z,54.6
2018-11-04T09:25:34.368Z,54.5
2018-11-04T09:26:35.688Z,54.4
2018-11-04T09:27:37.307Z,55.2
2018-11-04T09:28:39.207Z,54.5
2018-11-04T09:29:41.104Z,54.5
2018-11-04T09:30:42.730Z,54.8
2018-11-04T09:31:44.075Z,54.7
2018-11-04T09:32:45.674Z,54.7
2018-11-04T09:33:47.295Z,55.3
2018-11-04T09:34:49.148Z,54.6
2018-11-04T09:35:51.041Z,54.5
2018-11-04T09:36:53.095Z,55
2018-11-04T09:37:54.734Z,54.5
2018-11-04T09:38:56.630Z,54.6
2018-11-04T09:39:58.530Z,54.7
2018-11-04T09:40:59.869Z,55.3
2018-11-04T09:42:01.472Z,54.8
2018-11-04T09:43:03.105Z,54.8
2018-11-04T09:44:04.732Z,54.8
2018-11-04T09:45:06.073Z,54.9
2018-11-04T09:46:07.691Z,54.9
2018-11-04T09:47:09.312Z,54.9
2018-11-04T09:48:11.210Z,55
2018-11-04T09:49:13.108Z,54.8
2018-11-04T09:50:15.003Z,54.9
2018-11-04T09:51:16.903Z,54.9
2018-11-04T09:52:18.221Z,55
2018-11-04T09:53:20.124Z,55
2018-11-04T09:54:22.017Z,55.1
2018-11-04T09:55:23.341Z,54.9
2018-11-04T09:56:25.314Z,55
2018-11-04T09:57:27.089Z,54.9
2018-11-04T09:58:28.410Z,55
2018-11-04T09:59:30.029Z,54.9
2018-11-04T10:00:31.367Z,54.9
2018-11-04T10:01:32.970Z,55
2018-11-04T10:02:34.865Z,55.1
2018-11-04T10:03:36.760Z,55
2018-11-04T10:04:38.104Z,55.1
2018-11-04T10:05:39.147Z,55
2018-11-04T10:06:40.752Z,55.1
2018-11-04T10:07:42.650Z,55
2018-11-04T10:08:44.279Z,55.1
2018-11-04T10:09:45.943Z,55.1
2018-11-04T10:10:47.270Z,54.8
2018-11-04T10:11:48.885Z,55
2018-11-04T10:12:50.233Z,54.9
2018-11-04T10:13:52.131Z,54.9
2018-11-04T10:14:54.031Z,54.9
2018-11-04T10:15:55.655Z,55
2018-11-04T10:16:57.556Z,55.1
2018-11-04T10:17:59.451Z,55.1
2018-11-04T10:19:01.485Z,55.2
2018-11-04T10:20:03.911Z,54.8
2018-11-04T10:21:08.084Z,55
2018-11-04T10:22:11.959Z,55
2018-11-04T10:23:13.567Z,54.8
2018-11-04T10:24:15.179Z,55.2
2018-11-04T10:25:17.080Z,55
2018-11-04T10:26:18.422Z,55
2018-11-04T10:27:20.322Z,55
2018-11-04T10:28:22.222Z,55.2
2018-11-04T10:29:23.838Z,55.1
2018-11-04T10:30:25.735Z,55.1
2018-11-04T10:31:28.170Z,54.8
2018-11-04T10:32:29.792Z,55
2018-11-04T10:33:31.690Z,55.1
2018-11-04T10:34:33.591Z,54.8
2018-11-04T10:35:35.188Z,55.1
2018-11-04T10:36:36.788Z,55.1
2018-11-04T10:37:38.134Z,55.1
2018-11-04T10:38:39.753Z,55
2018-11-04T10:39:40.817Z,55.2
2018-11-04T10:40:42.164Z,55.1
2018-11-04T10:41:44.058Z,54.7
2018-11-04T10:42:45.951Z,54.8
2018-11-04T10:43:47.850Z,55.1
2018-11-04T10:44:49.811Z,55.2
2018-11-04T10:45:51.420Z,55.1
2018-11-04T10:46:53.333Z,55.3
2018-11-04T10:47:54.958Z,54.9
2018-11-04T10:48:56.002Z,55.1
2018-11-04T10:49:57.160Z,54.9
2018-11-04T10:50:59.086Z,55.2
2018-11-04T10:52:00.984Z,55.2
2018-11-04T10:53:02.884Z,55.2
2018-11-04T10:54:04.506Z,55.1
2018-11-04T10:55:06.405Z,55.2
2018-11-04T10:56:08.023Z,55.3
2018-11-04T10:57:09.644Z,55.2
2018-11-04T10:58:11.313Z,55.3
2018-11-04T10:59:12.930Z,55.2
2018-11-04T11:00:14.268Z,55.2
2018-11-04T11:01:15.887Z,55
2018-11-04T11:02:17.782Z,55.2
2018-11-04T11:03:19.403Z,55.2
2018-11-04T11:04:20.795Z,55.2
2018-11-04T11:05:22.692Z,55.2
2018-11-04T11:06:23.738Z,55.5
2018-11-04T11:07:25.636Z,55.1
2018-11-04T11:08:27.260Z,55.4
2018-11-04T11:09:29.158Z,55.2
2018-11-04T11:10:30.200Z,55.3
2018-11-04T11:11:32.120Z,55.2
2018-11-04T11:12:33.743Z,55.5
2018-11-04T11:13:35.644Z,55.2
2018-11-04T11:14:36.960Z,55.2
2018-11-04T11:15:38.860Z,55.4
2018-11-04T11:16:40.200Z,55.3
2018-11-04T11:17:41.813Z,55.2
2018-11-04T11:18:43.782Z,55.3
2018-11-04T11:19:45.379Z,55.4
2018-11-04T11:20:46.695Z,55.2
2018-11-04T11:21:48.317Z,55.2
2018-11-04T11:22:50.255Z,55.3
2018-11-04T11:23:53.014Z,55.2
2018-11-04T11:24:54.434Z,55.1
2018-11-04T11:25:56.034Z,55.3
2018-11-04T11:26:57.968Z,55.2
2018-11-04T11:27:59.315Z,55.1
2018-11-04T11:29:00.686Z,55.4
2018-11-04T11:30:01.783Z,55.1
2018-11-04T11:31:03.628Z,55.1
2018-11-04T11:32:05.250Z,55.3
2018-11-04T11:33:06.880Z,55.1
2018-11-04T11:34:08.499Z,55.2
2018-11-04T11:35:09.817Z,55.6
2018-11-04T11:36:10.884Z,55.6
2018-11-04T11:37:12.603Z,55.5
2018-11-04T11:38:14.574Z,55.4
2018-11-04T11:39:16.193Z,55.4
2018-11-04T11:40:17.241Z,55.6
2018-11-04T11:41:18.860Z,55.8
2018-11-04T11:42:20.759Z,55.6
2018-11-04T11:43:22.376Z,55.5
2018-11-04T11:44:23.976Z,55.6
2018-11-04T11:45:25.594Z,55.6
2018-11-04T11:46:27.216Z,55.5
2018-11-04T11:47:28.558Z,55.8
2018-11-04T11:48:30.457Z,55.7
2018-11-04T11:49:32.396Z,55.5
2018-11-04T11:50:33.447Z,55.9
2018-11-04T11:51:35.343Z,55.7
2018-11-04T11:52:37.493Z,55.5
2018-11-04T11:53:39.349Z,55.5
2018-11-04T11:54:41.247Z,55.5
2018-11-04T11:55:43.238Z,55.6
2018-11-04T11:56:44.847Z,55.7
2018-11-04T11:57:46.172Z,55.7
2018-11-04T11:58:47.238Z,55.5
2018-11-04T11:59:49.133Z,55.7
2018-11-04T12:00:50.454Z,55.7
2018-11-04T12:01:52.078Z,55.5
2018-11-04T12:02:53.695Z,55.8
2018-11-04T12:03:55.593Z,55.9
2018-11-04T12:04:57.193Z,55.8
2018-11-04T12:05:59.093Z,55.9
2018-11-04T12:07:00.715Z,55.8
2018-11-04T12:08:02.312Z,55.8
2018-11-04T12:09:03.933Z,55.6
2018-11-04T12:10:05.263Z,55.8
2018-11-04T12:11:06.881Z,55.8
2018-11-04T12:12:08.781Z,55.7
2018-11-04T12:13:10.428Z,56
2018-11-04T12:14:11.764Z,56
2018-11-04T12:15:13.664Z,56.2
2018-11-04T12:16:14.987Z,56.1
2018-11-04T12:17:16.883Z,55.9
2018-11-04T12:18:18.509Z,56
2018-11-04T12:19:20.409Z,56.1
2018-11-04T12:20:21.755Z,56.1
2018-11-04T12:21:23.082Z,56.1
2018-11-04T12:22:24.974Z,55.9
2018-11-04T12:23:26.645Z,56
2018-11-04T12:24:28.623Z,56
2018-11-04T12:25:30.521Z,55.9
2018-11-04T12:26:31.846Z,56.1
2018-11-04T12:27:33.744Z,56
2018-11-04T12:28:35.375Z,56
2018-11-04T12:29:37.271Z,56
2018-11-04T12:30:38.596Z,56
2018-11-04T12:31:40.215Z,56
2018-11-04T12:32:42.110Z,56.2
2018-11-04T12:33:43.439Z,56.1
2018-11-04T12:34:44.503Z,56.1
2018-11-04T12:35:46.123Z,56.2
2018-11-04T12:36:47.445Z,56.1
2018-11-04T12:37:48.769Z,56.2
2018-11-04T12:38:50.399Z,56.3
2018-11-04T12:39:51.438Z,56.2
2018-11-04T12:40:53.034Z,56.2
2018-11-04T12:41:54.381Z,56.2
2018-11-04T12:42:55.426Z,56.1
2018-11-04T12:43:56.749Z,56.3
2018-11-04T12:44:58.372Z,56.2
2018-11-04T12:46:00.273Z,56.5
2018-11-04T12:47:02.169Z,56.2
2018-11-04T12:48:04.068Z,56.3
2018-11-04T12:49:05.686Z,56.2
2018-11-04T12:50:07.308Z,56
2018-11-04T12:51:09.203Z,56.1
2018-11-04T12:52:10.885Z,56.2
2018-11-04T12:53:12.321Z,56
2018-11-04T12:54:14.216Z,56.1
2018-11-04T12:55:15.814Z,56.1
2018-11-04T12:56:17.712Z,56.1
2018-11-04T12:57:19.312Z,56.2
2018-11-04T12:58:20.641Z,56.2
2018-11-04T12:59:22.262Z,56.1
2018-11-04T13:00:23.947Z,56
2018-11-04T13:01:25.571Z,56
2018-11-04T13:02:26.894Z,56
2018-11-04T13:03:28.514Z,56.1
2018-11-04T13:04:30.417Z,56.2
2018-11-04T13:05:32.035Z,56.1
2018-11-04T13:06:33.932Z,56.3
2018-11-04T13:07:35.833Z,56.2
2018-11-04T13:08:37.451Z,56.3
2018-11-04T13:09:39.350Z,56.2
2018-11-04T13:10:40.674Z,56.2
2018-11-04T13:11:42.555Z,56.2
2018-11-04T13:12:44.151Z,56.3
2018-11-04T13:13:46.046Z,56.3
2018-11-04T13:14:47.943Z,56.3
2018-11-04T13:15:49.322Z,56.2
2018-11-04T13:16:50.942Z,56.5
2018-11-04T13:17:52.549Z,56.4
2018-11-04T13:18:54.455Z,56.3
2018-11-04T13:19:56.067Z,56.3
2018-11-04T13:20:57.464Z,56.3
2018-11-04T13:21:59.359Z,56.4
2018-11-04T13:23:01.260Z,56.3
2018-11-04T13:24:02.312Z,56.2
2018-11-04T13:25:03.381Z,56.4
2018-11-04T13:26:05.038Z,56.3
2018-11-04T13:27:06.467Z,56.5
2018-11-04T13:28:08.321Z,56.4
2018-11-04T13:29:09.368Z,56.4
2018-11-04T13:30:11.334Z,56.5
2018-11-04T13:31:13.232Z,56.4
2018-11-04T13:32:14.833Z,56.3
2018-11-04T13:33:16.426Z,56.3
2018-11-04T13:34:17.751Z,56.3
2018-11-04T13:35:19.350Z,56.5
2018-11-04T13:36:20.975Z,56.5
2018-11-04T13:37:22.596Z,56.7
2018-11-04T13:38:24.231Z,56.8
2018-11-04T13:39:26.127Z,56.7
2018-11-04T13:40:27.748Z,56.7
2018-11-04T13:41:29.350Z,56.8
2018-11-04T13:42:30.977Z,56.8
2018-11-04T13:43:32.026Z,56.8
2018-11-04T13:44:33.644Z,56.8
2018-11-04T13:45:35.544Z,56.7